Thedford, NE

9:28 PM CST on December 10, 2017 (GMT -0600)
Thedford

Weather History for KTIF - January, 2014

Change the Weather History Date:

Saturday, January 11, 2014

  Actual Average (KANW) Record (KANW)
Temperature  
Mean Temperature 40 °F -  
Max Temperature 52 °F 33 °F 60 °F (2006)
Min Temperature 29 °F 12 °F -11 °F (1997)
Degree Days  
Heating Degree Days 24    
Moisture  
Dew Point 24 °F    
Average Humidity 54    
Maximum Humidity 83    
Minimum Humidity 28    
Precipitation  
Precipitation 0.00 in - - ()
Sea Level Pressure  
Sea Level Pressure 29.72 in    
Wind  
Wind Speed 11 mph (West)    
Max Wind Speed 22 mph    
Max Gust Speed 30 mph    
Visibility 10 miles    
Events      
Averages and records for this station are not official NWS values.
T = Trace of Precipitation, MM = Missing Value Source: NWS Daily Summary

Daily Weather History Graph

Daily Weather History Graph

Search for Another Location

Airport or City:

Trip Planner

Search our weather history database for the weather conditions in past years. The results will help you decide how hot, cold, wet, or windy it might be!

Date:

Astronomy

Jan. 11, 2014 Rise Set
Actual Time 8:09 AM CST 5:31 PM CST
Civil Twilight 7:38 AM CST 6:02 PM CST
Nautical Twilight 7:03 AM CST 6:37 PM CST
Astronomical Twilight 6:29 AM CST 7:11 PM CST
Moon 2:17 PM CST 4:14 AM CST
Length of Visible Light 10h 24m
Length of Day
9h 22m
Waxing Gibbous, 83% of the Moon is Illuminated
Jan 11
Waxing Gibbous
Jan 15
Full
Jan 23
Last Quarter
Jan 30
New
Feb 6
First Quarter

Hourly Weather History & Observations

Time (CST) Temp. Windchill Dew Point Humidity Pressure Visibility Wind Dir Wind Speed Gust Speed Precip Events Conditions
12:15 AM 33.1 °F 26.1 °F 25.2 °F 73% 29.69 in 10.0 mi West 8.1 mph - N/A   Overcast
12:35 AM 33.8 °F 25.8 °F 25.5 °F 72% 29.69 in 10.0 mi West 10.4 mph - N/A   Overcast
12:55 AM 34.7 °F 28.1 °F 25.7 °F 70% 29.69 in 10.0 mi WNW 8.1 mph - N/A   Overcast
1:15 AM 34.2 °F 26.8 °F 25.5 °F 71% 29.68 in 10.0 mi WNW 9.2 mph - N/A   Mostly Cloudy
1:35 AM 35.4 °F 28.4 °F 26.1 °F 69% 29.69 in 10.0 mi WNW 9.2 mph - N/A   Mostly Cloudy
1:55 AM 34.9 °F 29.9 °F 25.7 °F 69% 29.69 in 10.0 mi WNW 5.8 mph - N/A   Overcast
2:15 AM 32.2 °F 25.0 °F 24.8 °F 74% 29.70 in 10.0 mi WNW 8.1 mph - N/A   Scattered Clouds
2:35 AM 32.9 °F 24.7 °F 25.2 °F 73% 29.71 in 10.0 mi WNW 10.4 mph - N/A   Clear
2:55 AM 32.9 °F 25.3 °F 25.3 °F 74% 29.72 in 10.0 mi WNW 9.2 mph - N/A   Clear
3:15 AM 33.1 °F 24.9 °F 25.7 °F 74% 29.73 in 10.0 mi WNW 10.4 mph - N/A   Clear
3:35 AM 32.5 °F 23.7 °F 25.7 °F 76% 29.74 in 10.0 mi WNW 11.5 mph - N/A   Clear
3:55 AM 33.1 °F 23.9 °F 26.4 °F 77% 29.74 in 10.0 mi WNW 12.7 mph 18.4 mph N/A   Clear
4:15 AM 33.8 °F 24.3 °F 26.8 °F 75% 29.75 in 10.0 mi WNW 13.8 mph - N/A   Clear
4:35 AM 33.8 °F 24.3 °F 27.0 °F 76% 29.76 in 10.0 mi WNW 13.8 mph 18.4 mph N/A   Clear
4:55 AM 33.1 °F 24.4 °F 26.6 °F 77% 29.77 in 10.0 mi West 11.5 mph 18.4 mph N/A   Clear
5:15 AM 32.2 °F 23.8 °F 26.4 °F 79% 29.78 in 10.0 mi WNW 10.4 mph - N/A   Clear
5:35 AM 32.0 °F 24.2 °F 26.1 °F 79% 29.79 in 10.0 mi WNW 9.2 mph - N/A   Clear
5:55 AM 32.4 °F 23.5 °F 25.7 °F 76% 29.79 in 10.0 mi WNW 11.5 mph 16.1 mph N/A   Clear
6:15 AM 32.2 °F 24.4 °F 25.7 °F 77% 29.80 in 10.0 mi WNW 9.2 mph - N/A   Clear
6:35 AM 32.0 °F 23.6 °F 25.7 °F 78% 29.80 in 10.0 mi WNW 10.4 mph - N/A   Clear
6:55 AM 32.0 °F 23.0 °F 25.7 °F 78% 29.80 in 10.0 mi WNW 11.5 mph - N/A   Clear
7:15 AM 31.5 °F 22.3 °F 25.7 °F 79% 29.81 in 10.0 mi WNW 11.5 mph - N/A   Clear
7:35 AM 31.1 °F 21.9 °F 25.5 °F 80% 29.82 in 10.0 mi WNW 11.5 mph - N/A   Clear
7:55 AM 30.0 °F 21.1 °F 25.2 °F 82% 29.83 in 10.0 mi West 10.4 mph - N/A   Clear
8:15 AM 30.4 °F 22.2 °F 25.5 °F 82% 29.83 in 10.0 mi WNW 9.2 mph - N/A   Clear
8:35 AM 29.5 °F 22.5 °F 25.0 °F 83% 29.83 in 10.0 mi West 6.9 mph - N/A   Clear
8:55 AM 31.1 °F 24.5 °F 25.9 °F 81% 29.84 in 10.0 mi WNW 6.9 mph - N/A   Clear
9:15 AM 32.0 °F 24.2 °F 26.2 °F 79% 29.85 in 10.0 mi West 9.2 mph - N/A   Clear
9:35 AM 34.5 °F 27.3 °F 27.3 °F 75% 29.85 in 10.0 mi WNW 9.2 mph - N/A   Clear
9:55 AM 36.7 °F 28.4 °F 27.9 °F 70% 29.85 in 10.0 mi WNW 12.7 mph 16.1 mph N/A   Clear
10:15 AM 39.7 °F 32.7 °F 28.0 °F 63% 29.86 in 10.0 mi WNW 11.5 mph - N/A   Clear
10:35 AM 41.0 °F 33.5 °F 27.7 °F 59% 29.87 in 10.0 mi WNW 13.8 mph 17.3 mph N/A   Clear
10:55 AM 42.1 °F 35.7 °F 27.3 °F 56% 29.86 in 10.0 mi WNW 11.5 mph 17.3 mph N/A   Clear
11:15 AM 43.5 °F 37.1 °F 26.4 °F 51% 29.87 in 10.0 mi WNW 12.7 mph 20.7 mph N/A   Clear
11:35 AM 45.1 °F 38.8 °F 25.7 °F 47% 29.86 in 10.0 mi West 13.8 mph 19.6 mph N/A   Clear
11:55 AM 46.6 °F - 25.3 °F 43% 29.85 in 10.0 mi WNW 15.0 mph 20.7 mph N/A   Clear
12:15 PM 47.3 °F - 24.3 °F 40% 29.84 in 10.0 mi WNW 16.1 mph 24.2 mph N/A   Clear
12:35 PM 47.7 °F - 23.0 °F 38% 29.81 in 10.0 mi NW 16.1 mph 24.2 mph N/A   Clear
12:55 PM 49.3 °F - 21.9 °F 34% 29.80 in 10.0 mi WNW 11.5 mph 18.4 mph N/A   Clear
1:15 PM 49.8 °F - 20.5 °F 32% 29.79 in 10.0 mi WNW 11.5 mph 18.4 mph N/A   Clear
1:35 PM 50.4 °F - 21.2 °F 32% 29.78 in 10.0 mi West 11.5 mph 17.3 mph N/A   Clear
1:55 PM 51.4 °F - 19.9 °F 29% 29.78 in 10.0 mi West 13.8 mph - N/A   Clear
2:15 PM 51.8 °F - 19.6 °F 28% 29.75 in 10.0 mi West 11.5 mph 18.4 mph N/A   Clear
2:35 PM 52.2 °F - 19.9 °F 28% 29.74 in 10.0 mi WNW 9.2 mph 16.1 mph N/A   Clear
2:55 PM 52.7 °F - 20.1 °F 28% 29.74 in 10.0 mi WNW 10.4 mph - N/A   Clear
3:15 PM 52.7 °F - 20.1 °F 28% 29.74 in 10.0 mi West 10.4 mph - N/A   Clear
3:35 PM 52.7 °F - 20.7 °F 29% 29.73 in 10.0 mi WSW 11.5 mph - N/A   Clear
3:55 PM 52.7 °F - 20.8 °F 29% 29.72 in 10.0 mi SW 9.2 mph - N/A   Clear
4:15 PM 52.7 °F - 21.6 °F 30% 29.72 in 10.0 mi SW 10.4 mph - N/A   Clear
4:35 PM 52.0 °F - 22.5 °F 32% 29.71 in 10.0 mi SW 10.4 mph - N/A   Clear
4:55 PM 50.7 °F - 23.0 °F 34% 29.70 in 10.0 mi SSW 6.9 mph - N/A   Clear
5:15 PM 48.9 °F - 23.7 °F 37% 29.69 in 10.0 mi SSW 9.2 mph - N/A   Clear
5:35 PM 47.3 °F - 23.7 °F 40% 29.68 in 10.0 mi SSW 8.1 mph - N/A   Clear
5:55 PM 46.2 °F 42.2 °F 23.9 °F 42% 29.67 in 10.0 mi South 8.1 mph - N/A   Clear
6:15 PM 44.6 °F 39.7 °F 24.3 °F 45% 29.66 in 10.0 mi South 9.2 mph - N/A   Clear
6:35 PM 44.1 °F 39.0 °F 24.4 °F 46% 29.66 in 10.0 mi South 9.2 mph - N/A   Clear
6:55 PM 45.9 °F 39.4 °F 24.3 °F 43% 29.64 in 10.0 mi SSW 15.0 mph - N/A   Clear
7:15 PM 46.4 °F 40.1 °F 23.9 °F 41% 29.64 in 10.0 mi SSW 15.0 mph 20.7 mph N/A   Clear
7:35 PM 47.3 °F - 23.2 °F 39% 29.63 in 10.0 mi SSW 17.3 mph 24.2 mph N/A   Clear
7:55 PM 47.8 °F - 23.0 °F 38% 29.61 in 10.0 mi SSW 19.6 mph 28.8 mph N/A   Clear
8:15 PM 47.5 °F - 23.0 °F 38% 29.61 in 10.0 mi SSW 20.7 mph 28.8 mph N/A   Clear
8:35 PM 47.3 °F - 23.0 °F 38% 29.60 in 10.0 mi SW 21.9 mph 29.9 mph N/A   Clear
8:55 PM 46.8 °F - 23.0 °F 39% 29.60 in 10.0 mi SSW 16.1 mph 25.3 mph N/A   Clear
9:15 PM 46.2 °F 39.5 °F 23.4 °F 41% 29.58 in 10.0 mi SW 16.1 mph 23.0 mph N/A   Clear
9:35 PM 46.4 °F 39.5 °F 23.4 °F 40% 29.57 in 10.0 mi SW 17.3 mph 25.3 mph N/A   Clear
9:55 PM 46.4 °F 39.5 °F 23.0 °F 40% 29.56 in 10.0 mi SW 17.3 mph 23.0 mph N/A   Clear
10:15 PM 44.6 °F 38.4 °F 23.5 °F 44% 29.54 in 10.0 mi SW 12.7 mph - N/A   Clear
10:35 PM 46.4 °F 40.1 °F 23.5 °F 41% 29.54 in 10.0 mi SW 15.0 mph 21.9 mph N/A   Clear
10:55 PM 47.5 °F - 23.4 °F 39% 29.54 in 10.0 mi SW 15.0 mph 20.7 mph N/A   Clear
11:15 PM 47.5 °F - 23.4 °F 39% 29.52 in 10.0 mi SSW 13.8 mph 21.9 mph N/A   Clear
11:35 PM 46.8 °F - 23.7 °F 40% 29.52 in 10.0 mi SW 11.5 mph - N/A   Clear
11:55 PM 48.2 °F - 23.7 °F 38% 29.52 in 10.0 mi SW 13.8 mph 20.7 mph N/A   Clear